createdAt,value
2022-12-08T00:00:31.407Z,-0.81
2022-12-08T00:03:41.436Z,-0.74
2022-12-08T00:07:05.194Z,-0.70
2022-12-08T00:10:46.701Z,-0.70
2022-12-08T00:13:38.737Z,-0.76
2022-12-08T00:16:50.363Z,-0.76
2022-12-08T00:19:58.562Z,-0.84
2022-12-08T00:23:08.423Z,-0.82
2022-12-08T00:26:14.409Z,-0.79
2022-12-08T00:29:24.182Z,-0.82
2022-12-08T00:32:30.346Z,-0.74
2022-12-08T00:35:43.053Z,-0.68
2022-12-08T00:38:52.632Z,-0.38
2022-12-08T00:42:13.324Z,-0.27
2022-12-08T00:45:18.728Z,-0.28
2022-12-08T00:48:27.548Z,-0.32
2022-12-08T00:51:32.908Z,-0.32
2022-12-08T00:54:41.193Z,-0.28
2022-12-08T00:57:48.509Z,-0.22
2022-12-08T01:00:56.183Z,-0.15
2022-12-08T01:04:06.660Z,-0.11
2022-12-08T01:07:13.480Z,-0.10
2022-12-08T01:10:22.629Z,-0.17
2022-12-08T01:13:30.674Z,-0.26
2022-12-08T01:16:41.601Z,-0.33
2022-12-08T01:19:53.500Z,-0.37
2022-12-08T01:22:59.560Z,-0.44
2022-12-08T01:26:08.633Z,-0.54
2022-12-08T01:29:14.354Z,-0.64
2022-12-08T01:32:20.451Z,-0.74
2022-12-08T01:35:25.853Z,-0.84
2022-12-08T01:38:34.872Z,-0.87
2022-12-08T01:41:41.973Z,-0.89
2022-12-08T01:44:54.764Z,-0.99
2022-12-08T01:48:04.299Z,-1.09
2022-12-08T01:51:11.455Z,-1.18
2022-12-08T01:54:20.902Z,-1.28
2022-12-08T01:57:29.648Z,-1.26
2022-12-08T02:00:35.937Z,-1.37
2022-12-08T02:03:44.412Z,-1.19
2022-12-08T02:06:53.507Z,-1.33
2022-12-08T02:10:01.533Z,-1.43
2022-12-08T02:13:09.687Z,-1.50
2022-12-08T02:16:35.669Z,-1.60
2022-12-08T02:19:48.132Z,-1.69
2022-12-08T02:23:07.187Z,-1.71
2022-12-08T02:26:14.333Z,-1.79
2022-12-08T02:29:37.205Z,-1.74
2022-12-08T02:33:01.970Z,-1.44
2022-12-08T02:36:14.075Z,-1.25
2022-12-08T02:39:19.972Z,-1.22
2022-12-08T02:42:32.463Z,-1.05
2022-12-08T02:45:46.376Z,-0.87
2022-12-08T02:48:53.194Z,-0.87
2022-12-08T02:52:06.888Z,-0.91
2022-12-08T02:55:24.173Z,-0.92
2022-12-08T02:58:29.648Z,-0.91
2022-12-08T03:01:45.675Z,-0.89
2022-12-08T03:05:09.266Z,-0.85
2022-12-08T03:08:24.349Z,-0.80
2022-12-08T03:11:37.685Z,-0.77
2022-12-08T03:14:48.421Z,-0.79
2022-12-08T03:17:58.982Z,-0.71
2022-12-08T03:21:09.321Z,-0.67
2022-12-08T03:24:16.542Z,-0.73
2022-12-08T03:27:24.914Z,-0.74
2022-12-08T03:30:32.053Z,-0.73
2022-12-08T03:33:43.162Z,-0.70
2022-12-08T03:36:49.689Z,-0.65
2022-12-08T03:39:57.061Z,-0.68
2022-12-08T03:43:04.515Z,-0.57
2022-12-08T03:46:11.613Z,-0.52
2022-12-08T03:49:20.887Z,-0.45
2022-12-08T03:52:27.286Z,-0.41
2022-12-08T03:55:35.547Z,-0.39
2022-12-08T03:58:44.554Z,-0.35
2022-12-08T04:01:53.975Z,-0.28
2022-12-08T04:05:01.452Z,-0.30
2022-12-08T04:08:10.696Z,-0.25
2022-12-08T04:11:21.508Z,-0.03
2022-12-08T04:14:28.494Z,0.10
2022-12-08T04:17:36.258Z,0.01
2022-12-08T04:20:42.838Z,-0.07
2022-12-08T04:23:54.954Z,-0.09
2022-12-08T04:27:03.687Z,-0.03
2022-12-08T04:30:08.326Z,0.03
2022-12-08T04:33:14.758Z,0.06
2022-12-08T04:36:22.221Z,0.06
2022-12-08T04:39:29.175Z,0.05
2022-12-08T04:42:36.536Z,0.08
2022-12-08T04:45:44.668Z,0.00
2022-12-08T04:48:53.528Z,0.12
2022-12-08T04:52:01.900Z,0.06
2022-12-08T04:55:07.834Z,0.08
2022-12-08T04:58:14.714Z,0.29
2022-12-08T05:01:20.940Z,0.25
2022-12-08T05:04:27.540Z,0.19
2022-12-08T05:07:36.098Z,0.26
2022-12-08T05:10:41.863Z,0.19
2022-12-08T05:13:51.643Z,0.18
2022-12-08T05:17:02.569Z,0.14
2022-12-08T05:20:11.223Z,0.18
2022-12-08T05:23:18.330Z,0.15
2022-12-08T05:26:24.159Z,0.22
2022-12-08T05:29:29.193Z,0.25
2022-12-08T05:32:35.941Z,0.20
2022-12-08T05:35:42.830Z,0.24
2022-12-08T05:38:51.820Z,0.36
2022-12-08T05:41:59.318Z,0.47
2022-12-08T05:45:05.382Z,0.43
2022-12-08T05:48:10.228Z,0.28
2022-12-08T05:51:25.160Z,0.35
2022-12-08T05:54:30.474Z,0.44
2022-12-08T05:57:36.288Z,0.37
2022-12-08T06:00:41.604Z,0.28
2022-12-08T06:03:46.158Z,0.22
2022-12-08T06:06:50.080Z,0.27
2022-12-08T06:09:55.156Z,0.28
2022-12-08T06:12:59.898Z,0.18
2022-12-08T06:16:06.900Z,0.16
2022-12-08T06:19:11.556Z,0.17
2022-12-08T06:22:16.870Z,0.24
2022-12-08T06:25:21.063Z,0.31
2022-12-08T06:28:27.012Z,0.39
2022-12-08T06:31:31.754Z,0.38
2022-12-08T06:34:37.024Z,0.46
2022-12-08T06:37:41.684Z,0.53
2022-12-08T06:40:45.419Z,0.53
2022-12-08T06:43:47.914Z,0.68
2022-12-08T06:46:51.218Z,0.61
2022-12-08T06:49:54.521Z,0.58
2022-12-08T06:53:05.140Z,0.68
2022-12-08T06:56:09.071Z,0.73
2022-12-08T06:59:12.868Z,0.73
2022-12-08T07:02:15.741Z,0.80
2022-12-08T07:05:19.893Z,1.10
2022-12-08T07:08:26.301Z,1.10
2022-12-08T07:11:30.660Z,0.98
2022-12-08T07:14:33.509Z,1.22
2022-12-08T07:17:36.339Z,1.14
2022-12-08T07:20:39.552Z,1.25
2022-12-08T07:23:43.526Z,1.18
2022-12-08T07:26:47.195Z,1.25
2022-12-08T07:29:51.094Z,1.27
2022-12-08T07:32:55.065Z,1.17
2022-12-08T07:35:59.943Z,1.18
2022-12-08T07:39:02.572Z,1.14
2022-12-08T07:42:06.282Z,1.26
2022-12-08T07:45:09.767Z,1.33
2022-12-08T07:48:13.620Z,1.18
2022-12-08T07:51:17.249Z,1.22
2022-12-08T07:54:21.317Z,1.19
2022-12-08T07:57:24.880Z,1.39
2022-12-08T08:00:31.577Z,1.60
2022-12-08T08:03:37.313Z,1.72
2022-12-08T08:06:40.976Z,1.92
2022-12-08T08:09:46.026Z,1.77
2022-12-08T08:12:50.791Z,1.67
2022-12-08T08:15:55.482Z,1.90
2022-12-08T08:18:59.625Z,2.09
2022-12-08T08:22:03.524Z,2.14
2022-12-08T08:25:08.003Z,2.42
2022-12-08T08:28:11.868Z,2.46
2022-12-08T08:31:14.508Z,2.55
2022-12-08T08:34:18.044Z,2.64
2022-12-08T08:37:21.281Z,2.46
2022-12-08T08:40:26.044Z,2.73
2022-12-08T08:43:37.563Z,2.77
2022-12-08T08:46:43.456Z,2.86
2022-12-08T08:49:48.350Z,2.75
2022-12-08T08:52:53.314Z,2.57
2022-12-08T08:55:58.461Z,2.74
2022-12-08T08:59:04.723Z,3.00
2022-12-08T09:02:16.963Z,2.92
2022-12-08T09:05:21.018Z,2.98
2022-12-08T09:08:24.910Z,3.11
2022-12-08T09:11:29.748Z,3.47
2022-12-08T09:14:33.015Z,3.69
2022-12-08T09:17:38.735Z,3.73
2022-12-08T09:20:42.822Z,3.49
2022-12-08T09:23:46.330Z,3.48
2022-12-08T09:26:49.458Z,3.06
2022-12-08T09:29:54.012Z,3.41
2022-12-08T09:32:57.085Z,3.19
2022-12-08T09:36:03.979Z,3.30
2022-12-08T09:39:06.813Z,3.31
2022-12-08T09:42:10.321Z,3.14
2022-12-08T09:45:15.158Z,3.08
2022-12-08T09:48:23.306Z,3.23
2022-12-08T09:51:34.870Z,3.18
2022-12-08T09:54:37.628Z,3.13
2022-12-08T09:57:40.198Z,3.03
2022-12-08T10:00:43.064Z,3.11
2022-12-08T10:03:46.385Z,3.34
2022-12-08T10:06:58.028Z,3.54
2022-12-08T10:10:01.066Z,3.64
2022-12-08T10:13:15.772Z,3.78
2022-12-08T10:16:33.277Z,4.02
2022-12-08T10:19:36.029Z,4.21
2022-12-08T10:22:44.473Z,4.25
2022-12-08T10:25:48.755Z,4.18
2022-12-08T10:28:51.915Z,3.91
2022-12-08T10:31:56.639Z,4.13
2022-12-08T10:35:18.817Z,3.99
2022-12-08T10:38:26.266Z,3.99
2022-12-08T10:41:29.588Z,4.24
2022-12-08T10:44:34.323Z,4.34
2022-12-08T10:47:45.004Z,4.37
2022-12-08T10:50:54.389Z,3.98
2022-12-08T10:53:58.858Z,4.27
2022-12-08T10:57:02.354Z,4.73
2022-12-08T11:00:13.664Z,4.99
2022-12-08T11:03:29.382Z,5.06
2022-12-08T11:06:36.734Z,4.89
2022-12-08T11:09:49.291Z,4.85
2022-12-08T11:12:54.085Z,4.87
2022-12-08T11:15:58.188Z,4.99
2022-12-08T11:19:07.382Z,5.20
2022-12-08T11:22:30.275Z,5.15
2022-12-08T11:25:34.162Z,4.43
2022-12-08T11:28:39.201Z,4.41
2022-12-08T11:31:50.487Z,4.67
2022-12-08T11:34:55.767Z,4.81
2022-12-08T11:38:20.656Z,4.94
2022-12-08T11:41:30.359Z,5.03
2022-12-08T11:44:45.560Z,4.86
2022-12-08T11:47:55.738Z,4.35
2022-12-08T11:51:06.103Z,4.32
2022-12-08T11:54:14.443Z,4.47
2022-12-08T11:57:21.169Z,4.51
2022-12-08T12:00:25.068Z,4.36
2022-12-08T12:03:38.650Z,4.55
2022-12-08T12:07:01.212Z,4.33
2022-12-08T12:10:17.808Z,4.37
2022-12-08T12:13:34.864Z,4.66
2022-12-08T12:16:46.068Z,4.26
2022-12-08T12:19:49.990Z,4.41
2022-12-08T12:22:57.012Z,4.28
2022-12-08T12:26:01.306Z,4.22
2022-12-08T12:29:06.698Z,4.38
2022-12-08T12:32:10.443Z,4.08
2022-12-08T12:35:15.865Z,3.87
2022-12-08T12:38:40.246Z,4.06
2022-12-08T12:41:57.400Z,4.00
2022-12-08T12:45:11.403Z,4.12
2022-12-08T12:48:21.501Z,4.06
2022-12-08T12:51:35.465Z,3.99
2022-12-08T12:54:42.558Z,4.14
2022-12-08T12:57:53.301Z,4.19
2022-12-08T13:01:08.921Z,4.19
2022-12-08T13:04:12.707Z,4.16
2022-12-08T13:07:23.031Z,4.32
2022-12-08T13:10:26.274Z,4.23
2022-12-08T13:13:29.759Z,3.99
2022-12-08T13:16:34.877Z,3.81
2022-12-08T13:19:39.119Z,3.58
2022-12-08T13:23:02.444Z,3.47
2022-12-08T13:26:09.578Z,3.62
2022-12-08T13:29:16.801Z,3.61
2022-12-08T13:33:16.238Z,3.66
2022-12-08T13:36:17.333Z,3.62
2022-12-08T13:39:26.009Z,3.49
2022-12-08T13:42:48.169Z,3.56
2022-12-08T13:46:57.467Z,3.49
2022-12-08T13:51:24.028Z,3.39
2022-12-08T13:53:49.490Z,3.44
2022-12-08T13:59:45.588Z,3.37
2022-12-08T14:02:51.398Z,3.38
2022-12-08T14:06:12.279Z,3.39
2022-12-08T14:09:20.334Z,3.55
2022-12-08T14:12:26.587Z,3.38
2022-12-08T14:15:38.221Z,3.37
2022-12-08T14:18:44.245Z,3.39
2022-12-08T14:22:07.789Z,3.46
2022-12-08T14:25:15.433Z,3.39
2022-12-08T14:28:20.417Z,3.46
2022-12-08T14:31:24.736Z,3.40
2022-12-08T14:34:27.962Z,3.39
2022-12-08T14:37:33.534Z,3.29
2022-12-08T14:40:37.788Z,3.21
2022-12-08T14:43:43.842Z,3.22
2022-12-08T14:47:07.931Z,3.21
2022-12-08T14:50:30.550Z,3.11
2022-12-08T14:53:38.708Z,3.25
2022-12-08T14:56:54.507Z,3.10
2022-12-08T15:00:08.069Z,3.00
2022-12-08T15:03:12.951Z,3.00
2022-12-08T15:06:17.257Z,2.99
2022-12-08T15:09:31.517Z,2.93
2022-12-08T15:12:36.067Z,2.96
2022-12-08T15:15:49.238Z,2.97
2022-12-08T15:19:05.593Z,2.89
2022-12-08T15:22:22.699Z,2.86
2022-12-08T15:25:27.702Z,2.84
2022-12-08T15:28:33.074Z,2.94
2022-12-08T15:31:39.301Z,2.98
2022-12-08T15:34:45.264Z,2.98
2022-12-08T15:37:51.078Z,2.94
2022-12-08T15:40:55.732Z,2.87
2022-12-08T15:43:59.916Z,2.86
2022-12-08T15:47:04.504Z,2.88
2022-12-08T15:50:08.248Z,2.88
2022-12-08T15:53:13.359Z,2.86
2022-12-08T15:56:28.712Z,2.86
2022-12-08T15:59:33.959Z,2.89
2022-12-08T16:03:05.043Z,2.96
2022-12-08T16:06:57.039Z,2.90
2022-12-08T16:09:26.993Z,2.86
2022-12-08T16:13:54.984Z,2.86
2022-12-08T16:16:18.678Z,2.89
2022-12-08T16:19:23.943Z,2.97
2022-12-08T16:29:26.423Z,3.01
2022-12-08T16:32:35.094Z,3.03
2022-12-08T16:35:41.060Z,3.05
2022-12-08T16:38:48.579Z,2.93
2022-12-08T16:42:13.999Z,2.99
2022-12-08T16:45:24.982Z,2.77
2022-12-08T16:48:30.766Z,2.66
2022-12-08T16:51:39.431Z,2.65
2022-12-08T16:54:49.239Z,2.52
2022-12-08T16:57:58.891Z,2.40
2022-12-08T17:01:04.833Z,2.43
2022-12-08T17:04:30.901Z,2.42
2022-12-08T17:07:37.867Z,2.38
2022-12-08T17:10:44.707Z,2.38
2022-12-08T17:13:52.720Z,2.51
2022-12-08T17:16:58.480Z,2.56
2022-12-08T17:20:06.848Z,2.56
2022-12-08T17:23:14.849Z,2.58
2022-12-08T17:26:20.951Z,2.71
2022-12-08T17:29:26.409Z,2.51
2022-12-08T17:32:31.634Z,2.51
2022-12-08T17:35:38.368Z,2.49
2022-12-08T17:38:46.241Z,2.50
2022-12-08T17:41:52.678Z,2.55
2022-12-08T17:44:58.690Z,2.56
2022-12-08T17:48:07.681Z,2.58
2022-12-08T17:51:14.183Z,2.71
2022-12-08T17:54:22.803Z,2.79
2022-12-08T17:57:29.591Z,2.76
2022-12-08T18:00:37.985Z,2.71
2022-12-08T18:03:46.650Z,2.70
2022-12-08T18:06:53.624Z,2.69
2022-12-08T18:10:00.582Z,2.78
2022-12-08T18:13:07.145Z,2.71
2022-12-08T18:16:14.580Z,2.72
2022-12-08T18:19:25.138Z,2.69
2022-12-08T18:22:33.265Z,2.63
2022-12-08T18:25:38.803Z,2.63
2022-12-08T18:28:44.253Z,2.77
2022-12-08T18:31:54.035Z,2.74
2022-12-08T18:35:02.189Z,2.68
2022-12-08T18:38:08.115Z,2.71
2022-12-08T18:41:16.743Z,2.70
2022-12-08T18:44:21.362Z,2.73
2022-12-08T18:47:28.497Z,2.95
2022-12-08T18:50:32.753Z,2.91
2022-12-08T18:53:38.407Z,2.94
2022-12-08T18:56:43.033Z,2.91
2022-12-08T18:59:49.289Z,2.94
2022-12-08T19:02:55.416Z,2.99
2022-12-08T19:06:06.473Z,2.89
2022-12-08T19:09:13.675Z,2.76
2022-12-08T19:12:21.515Z,2.73
2022-12-08T19:15:28.665Z,2.81
2022-12-08T19:18:34.844Z,2.89
2022-12-08T19:21:46.291Z,2.81
2022-12-08T19:24:53.734Z,2.82
2022-12-08T19:28:00.175Z,2.78
2022-12-08T19:31:07.065Z,2.78
2022-12-08T19:34:15.728Z,2.76
2022-12-08T19:37:22.501Z,2.73
2022-12-08T19:40:49.581Z,2.91
2022-12-08T19:44:13.210Z,3.02
2022-12-08T19:47:18.266Z,2.79
2022-12-08T19:50:39.271Z,2.80
2022-12-08T19:53:47.634Z,2.87
2022-12-08T19:56:55.331Z,2.91
2022-12-08T20:00:07.088Z,2.92
2022-12-08T20:03:17.018Z,2.93
2022-12-08T20:06:23.977Z,2.93
2022-12-08T20:09:28.297Z,2.95
2022-12-08T20:12:39.426Z,3.02
2022-12-08T20:15:47.037Z,2.90
2022-12-08T20:18:56.222Z,2.83
2022-12-08T20:22:04.420Z,2.78
2022-12-08T20:25:13.576Z,2.82
2022-12-08T20:28:23.893Z,2.83
2022-12-08T20:31:34.313Z,2.73
2022-12-08T20:34:39.625Z,2.71
2022-12-08T20:37:46.245Z,2.68
2022-12-08T20:40:51.411Z,2.71
2022-12-08T20:43:59.151Z,2.70
2022-12-08T20:47:05.504Z,2.65
2022-12-08T20:50:12.495Z,2.61
2022-12-08T20:53:21.991Z,2.58
2022-12-08T20:56:30.147Z,2.56
2022-12-08T20:59:37.846Z,2.76
2022-12-08T21:02:48.550Z,2.79
2022-12-08T21:05:54.183Z,2.65
2022-12-08T21:09:01.635Z,2.74
2022-12-08T21:12:07.917Z,2.77
2022-12-08T21:15:16.787Z,2.80
2022-12-08T21:18:23.579Z,2.82
2022-12-08T21:21:31.418Z,2.89
2022-12-08T21:24:36.719Z,2.84
2022-12-08T21:27:43.511Z,2.89
2022-12-08T21:30:50.473Z,2.88
2022-12-08T21:33:59.174Z,3.03
2022-12-08T21:37:09.502Z,2.93
2022-12-08T21:40:16.637Z,2.84
2022-12-08T21:43:23.223Z,2.69
2022-12-08T21:46:30.187Z,2.74
2022-12-08T21:49:36.600Z,2.80
2022-12-08T21:52:44.137Z,2.68
2022-12-08T21:55:50.287Z,2.61
2022-12-08T21:58:56.589Z,2.45
2022-12-08T22:02:02.104Z,2.49
2022-12-08T22:05:07.836Z,2.40
2022-12-08T22:08:15.515Z,2.53
2022-12-08T22:11:23.914Z,2.52
2022-12-08T22:14:32.278Z,2.46
2022-12-08T22:17:40.460Z,2.57
2022-12-08T22:20:46.145Z,2.60
2022-12-08T22:23:53.041Z,2.62
2022-12-08T22:27:00.731Z,2.57
2022-12-08T22:30:13.275Z,2.50
2022-12-08T22:33:21.783Z,2.48
2022-12-08T22:36:28.350Z,2.49
2022-12-08T22:39:33.445Z,2.48
2022-12-08T22:42:38.019Z,2.53
2022-12-08T22:45:41.148Z,2.60
2022-12-08T22:48:44.513Z,2.61
2022-12-08T22:51:47.375Z,2.67
2022-12-08T22:54:52.492Z,2.70
2022-12-08T22:57:58.223Z,2.73
2022-12-08T23:01:07.091Z,2.71
2022-12-08T23:04:17.715Z,2.70
2022-12-08T23:07:24.346Z,2.62
2022-12-08T23:10:30.931Z,2.66
2022-12-08T23:13:39.810Z,2.82
2022-12-08T23:16:46.277Z,2.75
2022-12-08T23:19:53.898Z,2.62
2022-12-08T23:23:00.401Z,2.58
2022-12-08T23:26:07.071Z,2.57
2022-12-08T23:29:13.950Z,2.51
2022-12-08T23:32:21.823Z,2.50
2022-12-08T23:35:27.486Z,2.57
2022-12-08T23:38:36.354Z,2.55
2022-12-08T23:41:43.952Z,2.65
2022-12-08T23:44:52.843Z,2.62
2022-12-08T23:48:00.673Z,2.72
2022-12-08T23:51:07.487Z,2.68
2022-12-08T23:54:13.409Z,2.62
2022-12-08T23:57:20.485Z,2.67
